createdAt,value
2019-05-03T00:02:03.791Z,1.63
2019-05-03T00:04:32.315Z,0.97
2019-05-03T00:07:02.610Z,0.80
2019-05-03T00:09:31.977Z,0.90
2019-05-03T00:12:01.918Z,1.03
2019-05-03T00:14:32.452Z,1.00
2019-05-03T00:17:02.313Z,0.70
2019-05-03T00:19:32.715Z,0.90
2019-05-03T00:22:02.135Z,0.90
2019-05-03T00:24:32.117Z,0.80
2019-05-03T00:27:01.945Z,1.10
2019-05-03T00:29:32.345Z,0.83
2019-05-03T00:32:01.973Z,0.90
2019-05-03T00:34:51.936Z,0.70
2019-05-03T00:37:28.291Z,0.93
2019-05-03T00:40:07.283Z,1.10
2019-05-03T00:42:35.947Z,0.70
2019-05-03T00:45:07.350Z,1.30
2019-05-03T00:47:36.033Z,1.07
2019-05-03T00:50:06.001Z,1.23
2019-05-03T00:52:34.555Z,0.73
2019-05-03T00:55:15.232Z,1.13
2019-05-03T00:57:33.437Z,1.00
2019-05-03T01:00:02.411Z,1.00
2019-05-03T01:02:31.838Z,0.87
2019-05-03T01:05:02.601Z,1.30
2019-05-03T01:07:31.839Z,0.80
2019-05-03T01:10:02.691Z,1.00
2019-05-03T01:12:32.395Z,1.10
2019-05-03T01:15:02.864Z,1.20
2019-05-03T01:17:32.315Z,1.50
2019-05-03T01:20:02.767Z,0.93
2019-05-03T01:22:32.231Z,1.47
2019-05-03T01:25:02.965Z,0.97
2019-05-03T01:27:32.619Z,1.10
2019-05-03T01:30:02.890Z,1.00
2019-05-03T01:32:32.938Z,0.87
2019-05-03T01:35:03.290Z,1.00
2019-05-03T01:37:32.060Z,0.80
2019-05-03T01:40:02.398Z,0.90
2019-05-03T01:42:32.103Z,1.00
2019-05-03T01:45:01.745Z,0.97
2019-05-03T01:47:32.634Z,1.00
2019-05-03T01:50:02.979Z,1.07
2019-05-03T01:52:35.578Z,1.07
2019-05-03T01:55:05.598Z,0.90
2019-05-03T01:57:34.186Z,1.27
2019-05-03T02:00:03.350Z,1.47
2019-05-03T02:02:33.544Z,0.80
2019-05-03T02:05:06.596Z,0.90
2019-05-03T02:07:35.148Z,0.73
2019-05-03T02:10:06.484Z,0.80
2019-05-03T02:12:35.101Z,1.20
2019-05-03T02:15:05.384Z,0.70
2019-05-03T02:17:33.946Z,0.80
2019-05-03T02:20:02.551Z,0.80
2019-05-03T02:22:31.920Z,0.90
2019-05-03T02:25:01.733Z,0.63
2019-05-03T02:27:32.507Z,1.00
2019-05-03T02:30:03.099Z,0.90
2019-05-03T02:32:33.090Z,0.83
2019-05-03T02:35:02.779Z,0.93
2019-05-03T02:37:33.039Z,0.90
2019-05-03T02:40:04.261Z,0.70
2019-05-03T02:42:32.096Z,0.93
2019-05-03T02:45:00.928Z,0.70
2019-05-03T02:47:47.155Z,0.67
2019-05-03T02:50:17.210Z,0.60
2019-05-03T02:52:46.011Z,0.80
2019-05-03T02:55:15.967Z,0.87
2019-05-03T02:57:46.666Z,0.70
2019-05-03T03:00:16.633Z,0.67
2019-05-03T03:02:45.771Z,0.70
2019-05-03T03:05:16.657Z,0.80
2019-05-03T03:07:46.755Z,0.80
2019-05-03T03:10:16.345Z,0.67
2019-05-03T03:12:46.960Z,0.77
2019-05-03T03:15:16.390Z,0.63
2019-05-03T03:17:47.094Z,0.80
2019-05-03T03:20:16.337Z,0.83
2019-05-03T03:22:46.472Z,0.70
2019-05-03T03:25:17.632Z,0.70
2019-05-03T03:27:48.781Z,0.80
2019-05-03T03:30:38.485Z,0.60
2019-05-03T03:33:10.375Z,0.97
2019-05-03T03:35:41.644Z,0.67
2019-05-03T03:38:10.329Z,1.00
2019-05-03T03:40:39.531Z,0.60
2019-05-03T03:43:10.408Z,0.60
2019-05-03T03:45:39.504Z,0.70
2019-05-03T03:48:10.335Z,0.60
2019-05-03T03:50:41.725Z,0.70
2019-05-03T03:53:12.019Z,0.60
2019-05-03T03:55:45.636Z,0.83
2019-05-03T03:58:21.244Z,0.70
2019-05-03T04:00:46.174Z,0.60
2019-05-03T04:03:15.854Z,0.80
2019-05-03T04:05:46.725Z,1.10
2019-05-03T04:08:16.149Z,0.70
2019-05-03T04:10:46.329Z,0.80
2019-05-03T04:13:16.828Z,0.60
2019-05-03T04:15:47.079Z,0.70
2019-05-03T04:18:30.232Z,1.00
2019-05-03T04:20:58.981Z,1.20
2019-05-03T04:23:30.094Z,0.83
2019-05-03T04:25:58.729Z,0.70
2019-05-03T04:28:27.392Z,0.80
2019-05-03T04:30:56.106Z,0.60
2019-05-03T04:33:26.922Z,0.60
2019-05-03T04:35:55.730Z,0.87
2019-05-03T04:38:25.603Z,0.60
2019-05-03T04:40:56.143Z,0.60
2019-05-03T04:43:26.451Z,1.00
2019-05-03T04:46:06.189Z,0.60
2019-05-03T04:48:35.581Z,0.67
2019-05-03T04:51:05.630Z,0.70
2019-05-03T04:53:35.748Z,0.80
2019-05-03T04:56:05.698Z,0.60
2019-05-03T04:58:36.410Z,0.53
2019-05-03T05:01:06.446Z,0.67
2019-05-03T05:03:36.097Z,0.70
2019-05-03T05:06:06.267Z,0.63
2019-05-03T05:08:35.867Z,0.70
2019-05-03T05:11:06.757Z,0.70
2019-05-03T05:13:35.732Z,0.70
2019-05-03T05:16:05.890Z,0.70
2019-05-03T05:18:39.239Z,0.50
2019-05-03T05:21:15.288Z,0.70
2019-05-03T05:24:00.409Z,0.50
2019-05-03T05:26:39.615Z,0.60
2019-05-03T05:29:09.881Z,0.97
2019-05-03T05:31:38.466Z,0.60
2019-05-03T05:34:08.824Z,0.50
2019-05-03T05:36:37.357Z,0.50
2019-05-03T05:39:07.142Z,0.60
2019-05-03T05:41:35.824Z,0.50
2019-05-03T05:44:05.411Z,0.50
2019-05-03T05:46:41.535Z,0.70
2019-05-03T05:49:11.737Z,0.47
2019-05-03T05:51:40.276Z,0.57
2019-05-03T05:54:08.870Z,0.53
2019-05-03T05:56:42.003Z,0.50
2019-05-03T05:59:21.403Z,0.67
2019-05-03T06:01:51.605Z,0.60
2019-05-03T06:04:20.141Z,0.53
2019-05-03T06:06:56.631Z,0.60
2019-05-03T06:09:44.772Z,0.57
2019-05-03T06:12:17.687Z,0.60
2019-05-03T06:14:47.851Z,0.60
2019-05-03T06:17:18.072Z,0.60
2019-05-03T06:19:48.263Z,0.50
2019-05-03T06:22:27.327Z,0.60
2019-05-03T06:25:07.043Z,0.60
2019-05-03T06:27:37.234Z,0.70
2019-05-03T06:30:17.528Z,0.50
2019-05-03T06:32:46.089Z,0.50
2019-05-03T06:35:15.223Z,0.60
2019-05-03T06:37:45.857Z,0.60
2019-05-03T06:40:15.090Z,0.50
2019-05-03T06:42:52.329Z,0.60
2019-05-03T06:45:15.080Z,0.50
2019-05-03T06:47:48.125Z,0.70
2019-05-03T06:50:14.620Z,0.50
2019-05-03T06:52:44.523Z,0.40
2019-05-03T06:55:14.526Z,0.50
2019-05-03T06:57:49.196Z,0.50
2019-05-03T07:00:17.690Z,0.50
2019-05-03T07:02:47.895Z,0.53
2019-05-03T07:05:35.432Z,0.60
2019-05-03T07:08:22.167Z,0.50
2019-05-03T07:10:52.417Z,0.53
2019-05-03T07:13:20.920Z,0.40
2019-05-03T07:15:49.450Z,0.50
2019-05-03T07:18:18.013Z,0.40
2019-05-03T07:20:51.115Z,0.40
2019-05-03T07:23:19.652Z,0.60
2019-05-03T07:25:48.283Z,0.60
2019-05-03T07:28:16.876Z,0.50
2019-05-03T07:30:45.609Z,0.40
2019-05-03T07:33:30.994Z,0.40
2019-05-03T07:35:59.595Z,0.40
2019-05-03T07:38:28.162Z,0.47
2019-05-03T07:40:56.751Z,0.50
2019-05-03T07:43:25.390Z,0.40
2019-05-03T07:45:55.235Z,0.40
2019-05-03T07:48:25.495Z,0.40
2019-05-03T07:50:54.651Z,0.50
2019-05-03T07:53:25.197Z,0.50
2019-05-03T07:56:05.216Z,0.50
2019-05-03T07:58:35.702Z,0.40
2019-05-03T08:01:21.437Z,0.50
2019-05-03T08:03:50.063Z,0.50
2019-05-03T08:06:18.600Z,0.50
2019-05-03T08:08:47.195Z,0.50
2019-05-03T08:11:15.736Z,0.50
2019-05-03T08:13:44.729Z,0.47
2019-05-03T08:16:15.915Z,0.50
2019-05-03T08:18:45.701Z,0.40
2019-05-03T08:21:14.933Z,0.80
2019-05-03T08:23:45.339Z,0.90
2019-05-03T08:26:15.264Z,0.60
2019-05-03T08:28:44.479Z,0.60
2019-05-03T08:31:20.471Z,0.70
2019-05-03T08:33:55.324Z,0.60
2019-05-03T08:36:24.751Z,0.70
2019-05-03T08:38:53.520Z,0.90
2019-05-03T08:41:24.730Z,0.80
2019-05-03T08:43:54.987Z,0.67
2019-05-03T08:46:25.415Z,1.00
2019-05-03T08:48:54.830Z,0.70
2019-05-03T08:51:25.025Z,0.70
2019-05-03T08:53:55.766Z,0.80
2019-05-03T08:56:24.548Z,0.80
2019-05-03T08:58:55.304Z,0.93
2019-05-03T09:01:25.117Z,0.53
2019-05-03T09:03:55.749Z,0.80
2019-05-03T09:06:24.797Z,0.60
2019-05-03T09:08:56.596Z,0.70
2019-05-03T09:11:31.861Z,0.50
2019-05-03T09:13:57.992Z,0.60
2019-05-03T09:16:26.636Z,0.60
2019-05-03T09:18:55.302Z,0.60
2019-05-03T09:21:25.574Z,0.50
2019-05-03T09:23:55.364Z,0.50
2019-05-03T09:26:28.847Z,0.50
2019-05-03T09:28:55.636Z,0.60
2019-05-03T09:31:24.828Z,0.50
2019-05-03T09:33:54.842Z,0.50
2019-05-03T09:36:25.365Z,0.40
2019-05-03T09:38:54.858Z,0.40
2019-05-03T09:41:25.564Z,0.60
2019-05-03T09:43:55.501Z,0.60
2019-05-03T09:46:26.472Z,0.70
2019-05-03T09:49:09.431Z,0.60
2019-05-03T09:51:25.717Z,0.50
2019-05-03T09:53:55.898Z,0.50
2019-05-03T09:56:53.445Z,0.40
2019-05-03T09:59:14.646Z,0.40
2019-05-03T10:01:45.440Z,0.50
2019-05-03T10:04:13.211Z,0.40
2019-05-03T10:06:41.779Z,0.50
2019-05-03T10:09:10.403Z,0.50
2019-05-03T10:11:38.958Z,0.50
2019-05-03T10:14:07.504Z,0.50
2019-05-03T10:16:37.767Z,0.50
2019-05-03T10:19:06.335Z,0.50
2019-05-03T10:21:36.518Z,0.47
2019-05-03T10:24:05.839Z,0.60
2019-05-03T10:26:35.579Z,0.53
2019-05-03T10:29:05.517Z,0.50
2019-05-03T10:31:35.808Z,0.60
2019-05-03T10:34:05.780Z,0.60
2019-05-03T10:36:35.662Z,0.50
2019-05-03T10:39:05.484Z,0.60
2019-05-03T10:41:34.817Z,0.90
2019-05-03T10:44:05.919Z,0.63
2019-05-03T10:46:35.307Z,0.60
2019-05-03T10:49:05.744Z,0.77
2019-05-03T10:51:35.994Z,0.60
2019-05-03T10:54:05.205Z,0.93
2019-05-03T10:56:41.335Z,0.60
2019-05-03T10:59:11.544Z,1.03
2019-05-03T11:01:41.744Z,0.70
2019-05-03T11:04:10.374Z,0.60
2019-05-03T11:06:38.974Z,0.57
2019-05-03T11:09:07.755Z,0.57
2019-05-03T11:11:36.314Z,0.60
2019-05-03T11:14:05.628Z,0.70
2019-05-03T11:16:35.154Z,0.50
2019-05-03T11:19:05.440Z,0.60
2019-05-03T11:21:34.755Z,0.70
2019-05-03T11:24:03.482Z,0.70
2019-05-03T11:26:34.697Z,0.60
2019-05-03T11:29:04.992Z,0.63
2019-05-03T11:31:46.590Z,0.67
2019-05-03T11:34:16.788Z,0.70
2019-05-03T11:37:04.954Z,0.73
2019-05-03T11:39:34.449Z,0.60
2019-05-03T11:42:04.691Z,0.73
2019-05-03T11:44:36.367Z,0.93
2019-05-03T11:47:05.801Z,1.00
2019-05-03T11:49:34.960Z,0.77
2019-05-03T11:52:06.248Z,0.77
2019-05-03T11:54:35.898Z,1.03
2019-05-03T11:57:08.519Z,0.80
2019-05-03T11:59:37.060Z,1.10
2019-05-03T12:02:19.721Z,0.80
2019-05-03T12:04:48.324Z,1.10
2019-05-03T12:07:38.991Z,0.80
2019-05-03T12:10:13.587Z,0.60
2019-05-03T12:12:38.097Z,0.87
2019-05-03T12:15:07.487Z,0.80
2019-05-03T12:17:50.738Z,1.00
2019-05-03T12:20:12.563Z,0.70
2019-05-03T12:22:41.883Z,0.93
2019-05-03T12:25:11.875Z,1.00
2019-05-03T12:27:40.986Z,0.87
2019-05-03T12:30:10.253Z,0.73
2019-05-03T12:32:38.835Z,1.00
2019-05-03T12:35:07.499Z,0.70
2019-05-03T12:37:36.079Z,0.80
2019-05-03T12:40:05.872Z,0.90
2019-05-03T12:42:35.452Z,0.70
2019-05-03T12:45:06.339Z,0.70
2019-05-03T12:47:34.888Z,1.03
2019-05-03T12:50:05.478Z,1.00
2019-05-03T12:52:35.471Z,0.87
2019-05-03T12:55:07.093Z,0.87
2019-05-03T12:57:36.000Z,0.73
2019-05-03T13:00:26.444Z,0.60
2019-05-03T13:03:05.946Z,0.70
2019-05-03T13:05:35.593Z,0.93
2019-05-03T13:08:39.685Z,0.80
2019-05-03T13:11:08.654Z,1.00
2019-05-03T13:13:37.331Z,0.83
2019-05-03T13:16:07.635Z,0.60
2019-05-03T13:18:36.315Z,1.03
2019-05-03T13:21:06.043Z,0.60
2019-05-03T13:23:35.511Z,0.70
2019-05-03T13:26:05.688Z,0.80
2019-05-03T13:28:34.989Z,0.70
2019-05-03T13:31:05.852Z,0.80
2019-05-03T13:33:34.851Z,0.70
2019-05-03T13:36:04.385Z,0.70
2019-05-03T13:38:34.972Z,1.00
2019-05-03T13:41:03.525Z,0.67
2019-05-03T13:43:32.150Z,0.63
2019-05-03T13:46:00.769Z,0.70
2019-05-03T13:48:41.670Z,0.70
2019-05-03T13:50:59.661Z,0.63
2019-05-03T13:53:28.283Z,1.10
2019-05-03T13:55:56.895Z,0.90
2019-05-03T13:58:26.448Z,0.93
2019-05-03T14:00:55.183Z,0.87
2019-05-03T14:03:23.901Z,0.90
2019-05-03T14:05:52.820Z,0.87
2019-05-03T14:08:21.373Z,1.10
2019-05-03T14:10:49.936Z,0.90
2019-05-03T14:13:18.611Z,0.80
2019-05-03T14:15:47.179Z,0.90
2019-05-03T14:18:15.844Z,1.10
2019-05-03T14:20:48.653Z,0.80
2019-05-03T14:23:17.331Z,1.20
2019-05-03T14:25:45.947Z,0.90
2019-05-03T14:28:14.691Z,1.33
2019-05-03T14:30:45.422Z,1.10
2019-05-03T14:33:14.227Z,0.93
2019-05-03T14:35:42.843Z,1.27
2019-05-03T14:38:11.482Z,0.90
2019-05-03T14:40:40.012Z,0.90
2019-05-03T14:43:08.619Z,1.13
2019-05-03T14:45:37.323Z,1.17
2019-05-03T14:48:06.376Z,1.00
2019-05-03T14:50:35.238Z,1.00
2019-05-03T14:53:05.409Z,1.00
2019-05-03T14:55:53.954Z,1.03
2019-05-03T14:58:35.715Z,1.10
2019-05-03T15:01:21.560Z,0.80
2019-05-03T15:03:50.176Z,0.80
2019-05-03T15:06:18.717Z,0.80
2019-05-03T15:08:47.285Z,1.10
2019-05-03T15:11:15.890Z,0.70
2019-05-03T15:13:45.576Z,0.90
2019-05-03T15:16:14.458Z,0.70
2019-05-03T15:18:45.240Z,0.70
2019-05-03T15:21:14.618Z,0.77
2019-05-03T15:23:45.206Z,0.60
2019-05-03T15:26:13.440Z,0.70
2019-05-03T15:28:42.057Z,0.80
2019-05-03T15:31:10.627Z,0.90
2019-05-03T15:33:39.154Z,0.93
2019-05-03T15:36:07.838Z,0.77
2019-05-03T15:38:36.391Z,0.93
2019-05-03T15:41:05.532Z,0.90
2019-05-03T15:43:38.677Z,0.90
2019-05-03T15:46:11.679Z,1.30
2019-05-03T15:48:45.836Z,1.00
2019-05-03T15:51:15.082Z,1.07
2019-05-03T15:53:44.406Z,1.07
2019-05-03T15:56:14.703Z,1.27
2019-05-03T15:58:46.432Z,1.57
2019-05-03T16:01:15.327Z,1.00
2019-05-03T16:03:44.873Z,1.03
2019-05-03T16:06:15.312Z,1.23
2019-05-03T16:08:44.642Z,2.13
2019-05-03T16:11:14.859Z,2.00
2019-05-03T16:13:44.824Z,1.90
2019-05-03T16:16:15.249Z,1.73
2019-05-03T16:18:44.837Z,1.70
2019-05-03T16:21:14.647Z,2.40
2019-05-03T16:23:46.267Z,1.93
2019-05-03T16:26:14.360Z,1.90
2019-05-03T16:28:46.402Z,2.53
2019-05-03T16:31:16.768Z,2.73
2019-05-03T16:33:45.758Z,2.30
2019-05-03T16:36:14.873Z,2.60
2019-05-03T16:38:44.931Z,2.57
2019-05-03T16:41:17.475Z,2.30
2019-05-03T16:43:45.517Z,2.53
2019-05-03T16:46:14.547Z,2.33
2019-05-03T16:48:44.813Z,2.13
2019-05-03T16:51:15.090Z,2.10
2019-05-03T16:53:44.507Z,2.03
2019-05-03T16:56:16.626Z,1.70
2019-05-03T16:58:44.649Z,1.40
2019-05-03T17:01:16.011Z,1.80
2019-05-03T17:03:45.644Z,1.90
2019-05-03T17:06:18.741Z,2.00
2019-05-03T17:08:51.750Z,2.00
2019-05-03T17:11:21.991Z,1.90
2019-05-03T17:13:50.569Z,2.53
2019-05-03T17:16:19.168Z,2.50
2019-05-03T17:18:47.666Z,2.50
2019-05-03T17:21:16.399Z,1.70
2019-05-03T17:23:44.931Z,1.50
2019-05-03T17:26:14.969Z,2.20
2019-05-03T17:28:44.788Z,1.70
2019-05-03T17:31:13.436Z,2.30
2019-05-03T17:33:51.492Z,1.90
2019-05-03T17:36:12.348Z,2.10
2019-05-03T17:38:40.947Z,2.10
2019-05-03T17:41:14.899Z,2.90
2019-05-03T17:43:50.931Z,2.03
2019-05-03T17:46:19.494Z,2.60
2019-05-03T17:48:48.188Z,2.40
2019-05-03T17:51:35.162Z,1.90
2019-05-03T17:54:08.616Z,2.57
2019-05-03T17:56:38.898Z,2.00
2019-05-03T17:59:09.148Z,2.20
2019-05-03T18:01:39.412Z,2.70
2019-05-03T18:04:18.953Z,2.50
2019-05-03T18:07:01.415Z,2.57
2019-05-03T18:09:34.745Z,2.37
2019-05-03T18:12:06.542Z,2.90
2019-05-03T18:14:35.248Z,2.50
2019-05-03T18:17:05.748Z,4.13
2019-05-03T18:19:34.427Z,3.43
2019-05-03T18:22:05.057Z,2.87
2019-05-03T18:24:35.035Z,1.87
2019-05-03T18:27:05.215Z,2.43
2019-05-03T18:29:34.636Z,3.03
2019-05-03T18:32:05.343Z,2.70
2019-05-03T18:34:34.126Z,3.10
2019-05-03T18:37:04.642Z,2.67
2019-05-03T18:39:34.724Z,3.20
2019-05-03T18:42:05.032Z,3.40
2019-05-03T18:44:35.446Z,3.00
2019-05-03T18:47:05.622Z,2.93
2019-05-03T18:49:35.371Z,2.93
2019-05-03T18:52:04.468Z,2.83
2019-05-03T18:54:34.924Z,3.37
2019-05-03T18:57:05.015Z,2.60
2019-05-03T18:59:33.712Z,3.03
2019-05-03T19:02:02.721Z,2.40
2019-05-03T19:04:37.885Z,2.77
2019-05-03T19:07:08.038Z,2.83
2019-05-03T19:09:44.064Z,2.57
2019-05-03T19:12:15.463Z,2.17
2019-05-03T19:14:44.828Z,2.30
2019-05-03T19:17:18.468Z,2.40
2019-05-03T19:19:58.132Z,2.63
2019-05-03T19:22:27.018Z,3.00
2019-05-03T19:24:55.483Z,3.60
2019-05-03T19:27:25.126Z,3.30
2019-05-03T19:29:55.398Z,3.60
2019-05-03T19:32:25.497Z,3.40
2019-05-03T19:34:55.021Z,4.20
2019-05-03T19:37:25.152Z,3.33
2019-05-03T19:39:55.276Z,3.60
2019-05-03T19:42:26.909Z,3.30
2019-05-03T19:44:55.436Z,3.37
2019-05-03T19:47:25.193Z,3.30
2019-05-03T19:49:54.687Z,2.87
2019-05-03T19:52:25.574Z,2.87
2019-05-03T19:54:55.422Z,2.60
2019-05-03T19:57:25.837Z,2.20
2019-05-03T19:59:56.899Z,3.03
2019-05-03T20:02:29.893Z,2.07
2019-05-03T20:05:16.538Z,2.53
2019-05-03T20:08:05.038Z,2.53
2019-05-03T20:10:35.122Z,2.60
2019-05-03T20:13:04.649Z,3.20
2019-05-03T20:15:33.380Z,2.90
2019-05-03T20:18:02.009Z,2.63
2019-05-03T20:20:30.619Z,2.33
2019-05-03T20:22:59.162Z,2.40
2019-05-03T20:25:27.704Z,2.73
2019-05-03T20:27:56.335Z,2.87
2019-05-03T20:30:25.476Z,2.10
2019-05-03T20:32:55.563Z,2.20
2019-05-03T20:35:25.233Z,2.70
2019-05-03T20:37:55.385Z,2.40
2019-05-03T20:40:25.658Z,2.20
2019-05-03T20:42:55.919Z,2.10
2019-05-03T20:45:35.528Z,1.83
2019-05-03T20:48:05.860Z,2.10
2019-05-03T20:50:35.307Z,1.80
2019-05-03T20:53:05.358Z,2.30
2019-05-03T20:55:34.726Z,2.93
2019-05-03T20:58:03.462Z,1.87
2019-05-03T21:00:32.071Z,2.30
2019-05-03T21:03:00.634Z,1.90
2019-05-03T21:05:32.984Z,1.80
2019-05-03T21:07:59.381Z,2.60
2019-05-03T21:10:27.922Z,1.80
2019-05-03T21:12:56.556Z,2.20
2019-05-03T21:15:44.875Z,2.80
2019-05-03T21:18:30.128Z,1.90
2019-05-03T21:21:08.952Z,2.30
2019-05-03T21:23:55.425Z,2.57
2019-05-03T21:26:25.414Z,2.20
2019-05-03T21:28:55.343Z,2.10
2019-05-03T21:31:24.664Z,2.40
2019-05-03T21:33:55.124Z,2.43
2019-05-03T21:36:25.372Z,3.13
2019-05-03T21:38:54.822Z,2.70
2019-05-03T21:41:24.647Z,2.80
2019-05-03T21:43:54.483Z,2.60
2019-05-03T21:46:25.577Z,2.50
2019-05-03T21:48:58.692Z,2.80
2019-05-03T21:51:27.306Z,2.30
2019-05-03T21:53:55.850Z,2.57
2019-05-03T21:56:24.986Z,2.50
2019-05-03T21:58:55.273Z,2.83
2019-05-03T22:01:25.941Z,2.67
2019-05-03T22:03:54.690Z,3.60
2019-05-03T22:06:24.671Z,3.50
2019-05-03T22:08:55.276Z,3.03
2019-05-03T22:11:25.170Z,2.97
2019-05-03T22:13:57.109Z,2.20
2019-05-03T22:16:27.573Z,1.93
2019-05-03T22:18:56.130Z,2.30
2019-05-03T22:21:29.263Z,2.73
2019-05-03T22:24:05.225Z,3.57
2019-05-03T22:26:53.311Z,3.87
2019-05-03T22:29:22.033Z,3.30
2019-05-03T22:31:50.629Z,3.77
2019-05-03T22:34:19.250Z,3.50
2019-05-03T22:36:47.867Z,3.85
2019-05-03T22:39:16.473Z,4.00
2019-05-03T22:41:45.091Z,2.77
2019-05-03T22:44:14.755Z,3.40
2019-05-03T22:46:44.584Z,3.67
2019-05-03T22:49:15.483Z,4.03
2019-05-03T22:51:45.148Z,3.47
2019-05-03T22:54:15.404Z,3.37
2019-05-03T22:56:44.787Z,3.83
2019-05-03T22:59:14.766Z,2.93
2019-05-03T23:01:45.598Z,3.87
2019-05-03T23:04:14.706Z,3.30
2019-05-03T23:06:46.690Z,3.83
2019-05-03T23:09:15.876Z,3.40
2019-05-03T23:11:44.743Z,2.80
2019-05-03T23:14:15.139Z,3.33
2019-05-03T23:16:44.856Z,3.27
2019-05-03T23:19:14.980Z,3.63
2019-05-03T23:21:48.368Z,4.30
2019-05-03T23:24:16.971Z,3.47
2019-05-03T23:26:45.509Z,3.80
2019-05-03T23:29:14.061Z,3.80
2019-05-03T23:31:44.704Z,3.70
2019-05-03T23:34:12.893Z,3.58
2019-05-03T23:36:41.432Z,3.60
2019-05-03T23:39:10.071Z,2.98
2019-05-03T23:41:38.619Z,3.35
2019-05-03T23:44:07.291Z,3.17
2019-05-03T23:46:37.560Z,4.28
2019-05-03T23:49:06.087Z,3.77
2019-05-03T23:51:51.365Z,3.65
2019-05-03T23:54:20.032Z,4.65
2019-05-03T23:56:48.699Z,3.35
2019-05-03T23:59:17.395Z,4.67
